Time;durP1;ratioP1;P1;durP2;ratioP2;P2;SDS_P1;SDS_P2;PMS_P1;PMS_P2;Temp;Humidity;BMP_temperature;BMP_pressure;BME280_temperature;BME280_humidity;BME280_pressure;Samples;Min_cycle;Max_cycle;Signal;HPM_P1;HPM_P2
2021/12/28 00:00:44;;;;;;;17.00;7.93;;;;;;;;;;5076529;28;20012;-79
2021/12/28 00:03:09;;;;;;;18.38;9.38;;;;;;;;;;5076755;28;20505;-78
2021/12/28 00:05:34;;;;;;;23.98;10.25;;;;;;;;;;5077825;28;20028;-78
2021/12/28 00:08:00;;;;;;;27.35;11.05;;;;;;;;;;5076814;28;20052;-77
2021/12/28 00:10:25;;;;;;;26.08;10.45;;;;;;;;;;5077407;28;20111;-79
2021/12/28 00:12:51;;;;;;;31.05;11.82;;;;;;;;;;5077158;28;20051;-78
2021/12/28 00:17:59;;;;;;;26.02;11.30;;;;;;;;;;5076129;28;20550;-78
2021/12/28 00:20:24;;;;;;;10.60;5.53;;;;;;;;;;5073356;28;20040;-79
2021/12/28 00:22:50;;;;;;;26.50;11.98;;;;;;;;;;5075205;28;20021;-77
2021/12/28 00:25:15;;;;;;;20.88;7.60;;;;;;;;;;5074826;28;20028;-78
2021/12/28 00:27:41;;;;;;;22.42;9.85;;;;;;;;;;5075696;28;20032;-77
2021/12/28 00:30:07;;;;;;;15.23;6.68;;;;;;;;;;5075893;28;20051;-76
2021/12/28 00:32:33;;;;;;;22.02;9.40;;;;;;;;;;5074324;28;20031;-78
2021/12/28 00:34:58;;;;;;;27.00;12.35;;;;;;;;;;5073855;28;20408;-79
2021/12/28 00:37:23;;;;;;;26.73;11.52;;;;;;;;;;5076387;28;20545;-79
2021/12/28 00:39:48;;;;;;;27.08;11.68;;;;;;;;;;5076488;28;20052;-78
2021/12/28 00:42:14;;;;;;;28.25;12.25;;;;;;;;;;5076116;28;20024;-79
2021/12/28 00:44:39;;;;;;;18.23;8.77;;;;;;;;;;5075912;28;20027;-78
2021/12/28 00:47:05;;;;;;;21.73;10.45;;;;;;;;;;5077524;28;20024;-78
2021/12/28 00:49:30;;;;;;;21.92;10.38;;;;;;;;;;5076482;28;20107;-78
2021/12/28 00:51:55;;;;;;;12.57;5.75;;;;;;;;;;5077880;28;20112;-78
2021/12/28 00:54:21;;;;;;;25.70;9.38;;;;;;;;;;5077117;28;20074;-79
2021/12/28 00:56:46;;;;;;;23.10;9.40;;;;;;;;;;5077894;28;20477;-78
2021/12/28 00:59:12;;;;;;;27.25;11.55;;;;;;;;;;5076639;28;20063;-79
2021/12/28 01:01:37;;;;;;;25.55;12.00;;;;;;;;;;5075264;28;20423;-77
2021/12/28 01:04:02;;;;;;;25.48;11.80;;;;;;;;;;5072105;28;20069;-77
2021/12/28 01:06:28;;;;;;;25.98;11.85;;;;;;;;;;5073382;28;20085;-77
2021/12/28 01:08:54;;;;;;;25.15;10.18;;;;;;;;;;5075558;28;20027;-77
2021/12/28 01:11:19;;;;;;;31.08;12.88;;;;;;;;;;5074317;28;20589;-78
2021/12/28 01:13:44;;;;;;;25.23;11.45;;;;;;;;;;5075301;28;20033;-78
2021/12/28 01:16:13;;;;;;;26.50;11.98;;;;;;;;;;5075354;28;20078;-78
2021/12/28 01:18:40;;;;;;;26.42;12.40;;;;;;;;;;5074692;28;20485;-78
2021/12/28 01:21:05;;;;;;;26.30;11.93;;;;;;;;;;5076926;28;20511;-79
2021/12/28 01:23:30;;;;;;;23.50;9.85;;;;;;;;;;5075010;28;20028;-78
2021/12/28 01:25:55;;;;;;;26.05;12.38;;;;;;;;;;5077027;28;20028;-79
2021/12/28 01:28:21;;;;;;;27.60;11.82;;;;;;;;;;5076692;28;20024;-77
2021/12/28 01:30:46;;;;;;;25.70;11.13;;;;;;;;;;5075469;28;20111;-78
2021/12/28 01:33:11;;;;;;;23.98;10.52;;;;;;;;;;5075999;28;20017;-79
2021/12/28 01:35:38;;;;;;;31.73;12.88;;;;;;;;;;5076050;28;20024;-78
2021/12/28 01:38:03;;;;;;;17.88;7.13;;;;;;;;;;5076998;28;20024;-78
2021/12/28 01:40:34;;;;;;;28.05;12.25;;;;;;;;;;5074443;28;20394;-78
2021/12/28 01:43:11;;;;;;;23.15;11.15;;;;;;;;;;5074207;28;20154;-77
2021/12/28 01:45:43;;;;;;;27.40;12.35;;;;;;;;;;5074692;28;20021;-77
2021/12/28 01:48:11;;;;;;;23.77;11.23;;;;;;;;;;5076154;28;20035;-79
2021/12/28 01:50:37;;;;;;;25.30;11.52;;;;;;;;;;5077028;28;20116;-78
2021/12/28 01:53:04;;;;;;;21.80;10.40;;;;;;;;;;5076411;28;20493;-78
2021/12/28 01:55:30;;;;;;;27.48;11.70;;;;;;;;;;5079652;28;20048;-78
2021/12/28 01:57:55;;;;;;;22.83;9.20;;;;;;;;;;5079565;28;20032;-78
2021/12/28 02:00:22;;;;;;;26.88;12.52;;;;;;;;;;5078508;28;20024;-78
2021/12/28 02:02:48;;;;;;;28.30;11.80;;;;;;;;;;5078096;28;20020;-77
2021/12/28 02:05:13;;;;;;;14.27;6.53;;;;;;;;;;5078281;28;20031;-78
2021/12/28 02:07:38;;;;;;;30.77;12.77;;;;;;;;;;5076790;28;20024;-78
2021/12/28 02:10:05;;;;;;;18.90;8.88;;;;;;;;;;5077296;28;20025;-78
2021/12/28 02:12:30;;;;;;;23.00;9.82;;;;;;;;;;5076911;28;20051;-77
2021/12/28 02:14:56;;;;;;;26.85;12.60;;;;;;;;;;5076813;28;20033;-78
2021/12/28 02:17:22;;;;;;;23.85;10.55;;;;;;;;;;5078807;28;20028;-78
2021/12/28 02:19:47;;;;;;;19.08;9.15;;;;;;;;;;5079102;28;20024;-77
2021/12/28 02:22:12;;;;;;;27.05;13.43;;;;;;;;;;5077535;28;20016;-78
2021/12/28 02:24:37;;;;;;;28.67;12.52;;;;;;;;;;5078006;28;20029;-77
2021/12/28 02:27:03;;;;;;;23.05;9.90;;;;;;;;;;5078116;28;20035;-78
2021/12/28 02:29:28;;;;;;;24.20;11.02;;;;;;;;;;5078584;28;20029;-78
2021/12/28 02:31:55;;;;;;;19.70;9.15;;;;;;;;;;5079281;28;20017;-78
2021/12/28 02:34:25;;;;;;;25.20;11.60;;;;;;;;;;5079287;28;20074;-78
2021/12/28 02:36:51;;;;;;;31.67;12.02;;;;;;;;;;5079755;28;20067;-78
2021/12/28 02:39:17;;;;;;;31.88;12.88;;;;;;;;;;5078348;28;20025;-78
2021/12/28 02:41:42;;;;;;;24.15;11.02;;;;;;;;;;5079551;28;20025;-78
2021/12/28 02:44:08;;;;;;;29.50;13.23;;;;;;;;;;5078472;28;20033;-77
2021/12/28 02:46:34;;;;;;;29.45;13.35;;;;;;;;;;5074925;28;20028;-78
2021/12/28 02:49:00;;;;;;;28.13;12.80;;;;;;;;;;5077912;28;20047;-78
2021/12/28 02:51:25;;;;;;;28.15;12.23;;;;;;;;;;5077848;28;20036;-78
2021/12/28 02:53:51;;;;;;;24.13;10.65;;;;;;;;;;5077720;28;20033;-76
2021/12/28 02:56:18;;;;;;;28.20;11.30;;;;;;;;;;5075792;28;20025;-77
2021/12/28 02:58:47;;;;;;;28.17;12.73;;;;;;;;;;5075778;28;20528;-77
2021/12/28 03:01:21;;;;;;;33.47;13.38;;;;;;;;;;5075887;28;20462;-78
2021/12/28 03:03:49;;;;;;;26.27;12.10;;;;;;;;;;5075788;28;20102;-77
2021/12/28 03:06:17;;;;;;;32.97;13.88;;;;;;;;;;5076224;28;20028;-77
2021/12/28 03:08:45;;;;;;;14.60;7.43;;;;;;;;;;5076591;28;20107;-77
2021/12/28 03:11:11;;;;;;;30.60;12.77;;;;;;;;;;5076564;28;20063;-77
2021/12/28 03:13:40;;;;;;;32.85;13.02;;;;;;;;;;5076636;28;20028;-77
2021/12/28 03:16:07;;;;;;;41.05;15.15;;;;;;;;;;5076902;28;20032;-76
2021/12/28 03:18:33;;;;;;;25.02;10.68;;;;;;;;;;5078064;28;20024;-78
2021/12/28 03:20:58;;;;;;;38.10;16.33;;;;;;;;;;5076401;28;20488;-79
2021/12/28 03:23:25;;;;;;;29.23;13.27;;;;;;;;;;5077398;28;20025;-78
2021/12/28 03:25:51;;;;;;;37.53;15.30;;;;;;;;;;5077816;28;20028;-79
2021/12/28 03:28:19;;;;;;;34.25;15.18;;;;;;;;;;5077707;28;20025;-79
2021/12/28 03:30:46;;;;;;;33.00;14.00;;;;;;;;;;5076533;28;20020;-78
2021/12/28 03:33:11;;;;;;;35.67;15.52;;;;;;;;;;5076245;28;20439;-79
2021/12/28 03:35:36;;;;;;;33.80;15.35;;;;;;;;;;5079372;28;20100;-79
2021/12/28 03:38:02;;;;;;;32.67;13.70;;;;;;;;;;5080745;28;20024;-79
2021/12/28 03:40:27;;;;;;;26.27;12.23;;;;;;;;;;5080851;28;20466;-78
2021/12/28 03:42:52;;;;;;;39.38;16.33;;;;;;;;;;5079895;28;20059;-77
2021/12/28 03:45:17;;;;;;;25.45;12.52;;;;;;;;;;5081413;28;20029;-79
2021/12/28 03:47:43;;;;;;;21.60;9.95;;;;;;;;;;5082389;28;20035;-79
2021/12/28 03:50:10;;;;;;;34.85;16.05;;;;;;;;;;5082926;28;20028;-79
2021/12/28 03:52:36;;;;;;;39.30;15.15;;;;;;;;;;5081608;28;20035;-78
2021/12/28 03:55:02;;;;;;;37.53;15.82;;;;;;;;;;5080348;28;20052;-78
2021/12/28 03:57:27;;;;;;;39.05;15.70;;;;;;;;;;5082691;28;20428;-79
2021/12/28 03:59:52;;;;;;;26.65;10.63;;;;;;;;;;5083352;28;20020;-78
2021/12/28 04:02:18;;;;;;;35.83;14.27;;;;;;;;;;5081356;28;20034;-79
2021/12/28 04:04:43;;;;;;;25.42;11.05;;;;;;;;;;5083560;28;20371;-79
2021/12/28 04:07:12;;;;;;;34.72;15.55;;;;;;;;;;5081475;28;20111;-79
2021/12/28 04:12:18;;;;;;;32.10;13.52;;;;;;;;;;5083252;28;20093;-78
2021/12/28 04:14:43;;;;;;;35.65;16.40;;;;;;;;;;5081345;28;20466;-79
2021/12/28 04:17:08;;;;;;;31.55;13.55;;;;;;;;;;5079607;28;20028;-79
2021/12/28 04:19:34;;;;;;;25.40;10.60;;;;;;;;;;5080929;28;20117;-79
2021/12/28 04:21:59;;;;;;;39.70;16.92;;;;;;;;;;5077943;28;20024;-78
2021/12/28 04:24:24;;;;;;;33.95;13.02;;;;;;;;;;5077813;28;20021;-78
2021/12/28 04:26:49;;;;;;;31.58;15.13;;;;;;;;;;5075491;28;20434;-77
2021/12/28 04:29:15;;;;;;;46.90;16.95;;;;;;;;;;5074839;28;20394;-78
2021/12/28 04:31:40;;;;;;;28.23;12.80;;;;;;;;;;5074364;28;20032;-78
2021/12/28 04:34:05;;;;;;;36.95;15.23;;;;;;;;;;5074405;28;20393;-78
2021/12/28 04:36:31;;;;;;;38.58;15.10;;;;;;;;;;5076161;28;20473;-76
2021/12/28 04:38:56;;;;;;;33.95;14.43;;;;;;;;;;5075621;28;20055;-79
2021/12/28 04:41:22;;;;;;;36.22;15.63;;;;;;;;;;5077128;28;20020;-79
2021/12/28 04:43:48;;;;;;;22.98;10.30;;;;;;;;;;5078561;28;20470;-79
2021/12/28 04:46:14;;;;;;;32.35;14.63;;;;;;;;;;5080806;28;20066;-79
2021/12/28 04:48:39;;;;;;;37.47;15.82;;;;;;;;;;5080073;28;20062;-79
2021/12/28 04:51:06;;;;;;;28.75;12.98;;;;;;;;;;5079628;28;20048;-78
2021/12/28 04:53:31;;;;;;;31.83;11.38;;;;;;;;;;5080728;28;20024;-78
2021/12/28 04:55:56;;;;;;;27.52;11.82;;;;;;;;;;5078580;28;20032;-80
2021/12/28 04:58:22;;;;;;;21.95;9.20;;;;;;;;;;5078479;28;20036;-78
2021/12/28 05:00:49;;;;;;;34.83;14.48;;;;;;;;;;5078479;28;20021;-77
2021/12/28 05:03:16;;;;;;;45.60;16.52;;;;;;;;;;5079282;28;20029;-79
2021/12/28 05:05:44;;;;;;;26.67;11.30;;;;;;;;;;5077324;28;20028;-78
2021/12/28 05:08:11;;;;;;;37.45;15.55;;;;;;;;;;5078585;28;20020;-78
2021/12/28 05:10:37;;;;;;;29.65;12.15;;;;;;;;;;5076881;28;20024;-78
2021/12/28 05:13:03;;;;;;;31.35;13.45;;;;;;;;;;5074446;28;20426;-77
2021/12/28 05:15:28;;;;;;;33.55;14.38;;;;;;;;;;5074512;28;20044;-79
2021/12/28 05:17:54;;;;;;;33.85;12.55;;;;;;;;;;5079517;28;20078;-79
2021/12/28 05:20:19;;;;;;;34.55;14.77;;;;;;;;;;5076408;28;20056;-78
2021/12/28 05:22:44;;;;;;;36.33;14.27;;;;;;;;;;5074180;28;20111;-78
2021/12/28 05:25:10;;;;;;;26.50;11.32;;;;;;;;;;5076601;28;20025;-79
2021/12/28 05:27:35;;;;;;;24.38;10.82;;;;;;;;;;5075261;28;20474;-77
2021/12/28 05:30:02;;;;;;;22.17;9.75;;;;;;;;;;5075403;28;20039;-78
2021/12/28 05:32:27;;;;;;;30.08;12.10;;;;;;;;;;5074342;28;20032;-78
2021/12/28 05:34:52;;;;;;;40.20;14.43;;;;;;;;;;5074102;28;20161;-77
2021/12/28 05:37:18;;;;;;;34.47;14.80;;;;;;;;;;5076743;28;20032;-78
2021/12/28 05:39:43;;;;;;;25.98;13.05;;;;;;;;;;5077622;28;20032;-78
2021/12/28 05:42:09;;;;;;;34.03;13.43;;;;;;;;;;5077388;28;20031;-78
2021/12/28 05:44:34;;;;;;;21.90;8.32;;;;;;;;;;5076314;28;20028;-77
2021/12/28 05:46:59;;;;;;;23.20;10.02;;;;;;;;;;5074976;28;20111;-79
2021/12/28 05:49:25;;;;;;;30.67;12.20;;;;;;;;;;5074269;28;20032;-77
2021/12/28 05:51:51;;;;;;;37.78;13.70;;;;;;;;;;5075665;28;20028;-78
2021/12/28 05:54:17;;;;;;;26.50;12.35;;;;;;;;;;5077273;28;20028;-78
2021/12/28 05:56:43;;;;;;;32.97;13.60;;;;;;;;;;5078823;28;20520;-79
2021/12/28 05:59:08;;;;;;;35.08;12.70;;;;;;;;;;5076247;28;20029;-78
2021/12/28 06:01:33;;;;;;;29.90;11.50;;;;;;;;;;5075596;28;20013;-78
2021/12/28 06:03:59;;;;;;;34.80;13.38;;;;;;;;;;5074741;28;20033;-79
2021/12/28 06:06:24;;;;;;;19.02;7.88;;;;;;;;;;5078390;28;20042;-80
2021/12/28 06:08:51;;;;;;;29.83;11.98;;;;;;;;;;5077961;28;20436;-79
2021/12/28 06:11:17;;;;;;;29.80;11.20;;;;;;;;;;5077449;28;20074;-79
2021/12/28 06:13:42;;;;;;;28.85;12.55;;;;;;;;;;5078470;28;20017;-79
2021/12/28 06:16:09;;;;;;;27.83;11.35;;;;;;;;;;5075520;28;20481;-79
2021/12/28 06:18:34;;;;;;;35.75;13.23;;;;;;;;;;5076715;28;20024;-77
2021/12/28 06:21:00;;;;;;;22.27;8.73;;;;;;;;;;5074785;28;20047;-78
2021/12/28 06:23:25;;;;;;;34.63;12.57;;;;;;;;;;5074112;28;20478;-78
2021/12/28 06:25:50;;;;;;;31.80;11.57;;;;;;;;;;5074424;28;20402;-78
2021/12/28 06:28:16;;;;;;;30.60;11.48;;;;;;;;;;5074132;28;20043;-78
2021/12/28 06:30:41;;;;;;;33.83;13.15;;;;;;;;;;5074366;28;20021;-78
2021/12/28 06:33:06;;;;;;;35.28;12.43;;;;;;;;;;5076455;28;20052;-78
2021/12/28 06:35:32;;;;;;;35.17;12.05;;;;;;;;;;5078000;28;20024;-78
2021/12/28 06:37:57;;;;;;;21.80;9.38;;;;;;;;;;5078389;28;20032;-78
2021/12/28 06:40:22;;;;;;;26.63;12.05;;;;;;;;;;5077635;28;20063;-77
2021/12/28 06:42:47;;;;;;;28.45;10.93;;;;;;;;;;5075902;28;20393;-77
2021/12/28 06:45:13;;;;;;;31.08;12.05;;;;;;;;;;5077585;28;20394;-78
2021/12/28 06:47:38;;;;;;;35.58;13.38;;;;;;;;;;5078307;28;20028;-78
2021/12/28 06:50:05;;;;;;;17.38;7.95;;;;;;;;;;5078773;28;20024;-77
2021/12/28 06:52:31;;;;;;;25.35;10.27;;;;;;;;;;5077864;28;20029;-78
2021/12/28 06:54:56;;;;;;;25.45;10.27;;;;;;;;;;5077745;28;20505;-78
2021/12/28 06:57:22;;;;;;;24.73;11.38;;;;;;;;;;5078569;28;20066;-78
2021/12/28 06:59:47;;;;;;;26.73;10.95;;;;;;;;;;5076884;28;20098;-77
2021/12/28 07:02:14;;;;;;;22.25;9.52;;;;;;;;;;5078544;28;20539;-78
2021/12/28 07:04:41;;;;;;;27.92;11.63;;;;;;;;;;5078179;28;20028;-78
2021/12/28 07:07:06;;;;;;;26.30;10.95;;;;;;;;;;5079584;28;20385;-80
2021/12/28 07:09:32;;;;;;;23.85;10.48;;;;;;;;;;5077491;28;20024;-77
2021/12/28 07:11:58;;;;;;;26.10;10.70;;;;;;;;;;5077763;28;20032;-78
2021/12/28 07:14:23;;;;;;;26.13;11.93;;;;;;;;;;5077066;28;20024;-78
2021/12/28 07:16:48;;;;;;;23.77;10.15;;;;;;;;;;5078469;28;20024;-77
2021/12/28 07:19:14;;;;;;;26.38;11.35;;;;;;;;;;5078328;28;20107;-78
2021/12/28 07:21:40;;;;;;;25.30;11.52;;;;;;;;;;5077684;28;20070;-77
2021/12/28 07:24:06;;;;;;;27.85;10.95;;;;;;;;;;5076452;28;20024;-78
2021/12/28 07:26:32;;;;;;;25.40;11.77;;;;;;;;;;5078546;28;20032;-79
2021/12/28 07:28:58;;;;;;;26.90;9.80;;;;;;;;;;5080828;28;20112;-78
2021/12/28 07:31:23;;;;;;;22.52;8.95;;;;;;;;;;5080617;28;20021;-78
2021/12/28 07:33:48;;;;;;;23.08;8.65;;;;;;;;;;5080778;28;20101;-78
2021/12/28 07:36:13;;;;;;;24.15;10.55;;;;;;;;;;5075174;28;20087;-78
2021/12/28 07:38:39;;;;;;;27.75;11.90;;;;;;;;;;5078310;28;20025;-79
2021/12/28 07:41:04;;;;;;;24.02;9.57;;;;;;;;;;5077837;28;20016;-78
2021/12/28 07:43:29;;;;;;;24.05;10.65;;;;;;;;;;5077937;28;20502;-77
2021/12/28 07:45:54;;;;;;;23.27;10.60;;;;;;;;;;5077099;28;20366;-79
2021/12/28 07:48:20;;;;;;;23.58;9.27;;;;;;;;;;5077285;28;20036;-78
2021/12/28 07:50:47;;;;;;;20.85;9.93;;;;;;;;;;5076611;28;20028;-77
2021/12/28 07:53:13;;;;;;;21.25;9.00;;;;;;;;;;5079491;28;20025;-79
2021/12/28 07:55:38;;;;;;;24.10;11.13;;;;;;;;;;5079373;28;20028;-78
2021/12/28 07:58:03;;;;;;;29.10;11.43;;;;;;;;;;5078057;28;20028;-78
2021/12/28 08:00:29;;;;;;;19.23;8.70;;;;;;;;;;5079252;28;20027;-79
2021/12/28 08:02:54;;;;;;;23.15;10.02;;;;;;;;;;5079904;28;20097;-78
2021/12/28 08:05:20;;;;;;;15.50;7.13;;;;;;;;;;5075549;28;20485;-77
2021/12/28 08:07:45;;;;;;;24.23;11.18;;;;;;;;;;5074417;28;20086;-78
2021/12/28 08:10:13;;;;;;;25.98;8.85;;;;;;;;;;5077428;28;20371;-78
2021/12/28 08:12:38;;;;;;;18.13;8.50;;;;;;;;;;5077729;28;20021;-78
2021/12/28 08:15:05;;;;;;;21.85;10.55;;;;;;;;;;5080050;28;20432;-76
2021/12/28 08:17:30;;;;;;;18.48;9.13;;;;;;;;;;5079135;28;20043;-78
2021/12/28 08:19:56;;;;;;;29.90;11.73;;;;;;;;;;5075382;28;20028;-78
2021/12/28 08:22:21;;;;;;;22.10;9.02;;;;;;;;;;5075934;28;20027;-77
2021/12/28 08:24:47;;;;;;;25.88;11.57;;;;;;;;;;5059217;28;20027;-77
2021/12/28 08:27:12;;;;;;;25.90;10.35;;;;;;;;;;5075200;28;20025;-78
2021/12/28 08:29:37;;;;;;;22.98;11.48;;;;;;;;;;5076008;28;20059;-78
2021/12/28 08:32:03;;;;;;;24.20;11.68;;;;;;;;;;5076917;28;20456;-78
2021/12/28 08:34:28;;;;;;;27.02;11.85;;;;;;;;;;5075930;28;20453;-78
2021/12/28 08:36:53;;;;;;;27.63;11.60;;;;;;;;;;5077123;28;20028;-78
2021/12/28 08:39:19;;;;;;;16.58;8.40;;;;;;;;;;5076317;28;20028;-78
2021/12/28 08:41:44;;;;;;;26.27;11.32;;;;;;;;;;5076445;28;20021;-77
2021/12/28 08:44:09;;;;;;;25.20;9.55;;;;;;;;;;5074763;28;20020;-76
2021/12/28 08:46:35;;;;;;;23.33;11.32;;;;;;;;;;5074623;28;20055;-78
2021/12/28 08:49:01;;;;;;;22.42;10.57;;;;;;;;;;5074136;28;20017;-78
2021/12/28 08:51:26;;;;;;;24.65;10.27;;;;;;;;;;5074589;28;20564;-78
2021/12/28 08:53:51;;;;;;;19.88;9.30;;;;;;;;;;5074354;28;20555;-77
2021/12/28 08:56:16;;;;;;;25.42;10.55;;;;;;;;;;5073323;28;20039;-76
2021/12/28 08:58:42;;;;;;;23.20;10.43;;;;;;;;;;5073367;28;20084;-77
2021/12/28 09:01:07;;;;;;;24.40;10.85;;;;;;;;;;5075708;28;20056;-76
2021/12/28 09:03:33;;;;;;;21.23;9.27;;;;;;;;;;5076044;28;20347;-79
2021/12/28 09:06:00;;;;;;;21.17;10.18;;;;;;;;;;5074500;28;20037;-80
2021/12/28 09:08:25;;;;;;;16.83;8.25;;;;;;;;;;5075180;28;20024;-79
2021/12/28 09:10:51;;;;;;;24.50;11.15;;;;;;;;;;5075663;28;20474;-78
2021/12/28 09:13:18;;;;;;;25.38;10.07;;;;;;;;;;5075557;28;20430;-78
2021/12/28 09:15:43;;;;;;;12.90;6.05;;;;;;;;;;5074934;28;20031;-77
2021/12/28 09:18:09;;;;;;;27.80;10.80;;;;;;;;;;5073715;28;20024;-77
2021/12/28 09:20:34;;;;;;;22.92;10.73;;;;;;;;;;5072785;28;20107;-77
2021/12/28 09:23:00;;;;;;;10.25;4.63;;;;;;;;;;5073638;28;20041;-77
2021/12/28 09:25:25;;;;;;;23.58;9.63;;;;;;;;;;5073303;28;20029;-77
2021/12/28 09:27:52;;;;;;;11.13;4.88;;;;;;;;;;5073816;28;20032;-77
2021/12/28 09:30:17;;;;;;;19.52;9.77;;;;;;;;;;5073009;28;20176;-77
2021/12/28 09:32:43;;;;;;;22.50;7.95;;;;;;;;;;5074775;28;20063;-77
2021/12/28 09:35:09;;;;;;;21.63;9.68;;;;;;;;;;5073543;28;20031;-77
2021/12/28 09:37:35;;;;;;;20.88;8.57;;;;;;;;;;5074541;28;20032;-76
2021/12/28 09:40:02;;;;;;;15.40;7.38;;;;;;;;;;5074305;28;20031;-77
2021/12/28 09:42:28;;;;;;;23.10;10.23;;;;;;;;;;5073633;28;20024;-77
2021/12/28 09:44:53;;;;;;;24.27;10.70;;;;;;;;;;5073681;28;20371;-77
2021/12/28 09:47:19;;;;;;;22.75;10.05;;;;;;;;;;5075284;28;20028;-78
2021/12/28 09:49:46;;;;;;;23.33;10.35;;;;;;;;;;5074193;28;20020;-78
2021/12/28 09:52:12;;;;;;;15.15;7.82;;;;;;;;;;5074905;28;20035;-78
2021/12/28 09:54:38;;;;;;;24.42;10.77;;;;;;;;;;5074854;28;20028;-78
2021/12/28 09:57:04;;;;;;;23.08;10.43;;;;;;;;;;5073268;28;20063;-77
2021/12/28 09:59:30;;;;;;;16.67;7.78;;;;;;;;;;5073382;28;20099;-78
2021/12/28 10:01:58;;;;;;;20.73;7.55;;;;;;;;;;5073892;28;20393;-77
2021/12/28 10:04:24;;;;;;;16.30;7.85;;;;;;;;;;5071505;28;20105;-77
2021/12/28 10:06:49;;;;;;;21.58;9.23;;;;;;;;;;5073282;28;20032;-76
2021/12/28 10:09:20;;;;;;;14.55;6.65;;;;;;;;;;5077864;28;20454;-78
2021/12/28 10:11:53;;;;;;;22.88;9.30;;;;;;;;;;5076698;28;20028;-76
2021/12/28 10:14:24;;;;;;;24.02;9.40;;;;;;;;;;5075829;28;20035;-77
2021/12/28 10:17:01;;;;;;;17.02;8.00;;;;;;;;;;5077179;28;20016;-77
2021/12/28 10:19:40;;;;;;;19.40;9.57;;;;;;;;;;5076213;28;20024;-77
2021/12/28 10:22:29;;;;;;;19.55;9.25;;;;;;;;;;5076492;28;20086;-76
2021/12/28 10:25:02;;;;;;;17.05;8.02;;;;;;;;;;5077074;28;20024;-78
2021/12/28 10:27:31;;;;;;;24.50;10.27;;;;;;;;;;5076970;28;20111;-76
2021/12/28 10:30:05;;;;;;;20.25;9.13;;;;;;;;;;5076659;28;20044;-76
2021/12/28 10:32:30;;;;;;;16.88;7.93;;;;;;;;;;5079466;28;20102;-77
2021/12/28 10:34:58;;;;;;;21.63;9.98;;;;;;;;;;5077281;28;20470;-77
2021/12/28 10:37:28;;;;;;;18.98;9.77;;;;;;;;;;5079771;28;20025;-79
2021/12/28 10:39:56;;;;;;;20.10;9.55;;;;;;;;;;5078757;28;20032;-78
2021/12/28 10:42:39;;;;;;;16.88;7.72;;;;;;;;;;5078847;28;20025;-77
2021/12/28 10:45:09;;;;;;;21.48;9.82;;;;;;;;;;5077384;28;20024;-77
2021/12/28 10:47:34;;;;;;;20.00;10.55;;;;;;;;;;5080100;28;20029;-79
2021/12/28 10:50:18;;;;;;;22.35;9.90;;;;;;;;;;5079398;28;20082;-77
2021/12/28 10:52:49;;;;;;;22.00;11.18;;;;;;;;;;5077768;28;20033;-78
2021/12/28 10:55:23;;;;;;;17.77;8.57;;;;;;;;;;5079060;28;20040;-78
2021/12/28 10:57:49;;;;;;;;;;;;;;;;;;5079695;28;20442;-78
2021/12/28 11:00:25;;;;;;;15.98;7.65;;;;;;;;;;5078533;28;19915;-79
2021/12/28 11:02:52;;;;;;;17.88;7.70;;;;;;;;;;5079140;28;20074;-78
2021/12/28 11:05:34;;;;;;;18.67;8.20;;;;;;;;;;5078674;28;20036;-78
2021/12/28 11:08:07;;;;;;;20.13;9.00;;;;;;;;;;5078110;28;20063;-80
2021/12/28 11:10:32;;;;;;;19.05;8.60;;;;;;;;;;5078869;28;20025;-79
2021/12/28 11:12:58;;;;;;;17.52;8.15;;;;;;;;;;5080213;28;20023;-77
2021/12/28 11:15:24;;;;;;;17.75;8.27;;;;;;;;;;5078195;28;20032;-78
2021/12/28 11:17:53;;;;;;;24.40;9.82;;;;;;;;;;5076324;28;20056;-78
2021/12/28 11:20:31;;;;;;;17.67;8.32;;;;;;;;;;5077315;28;20032;-77
2021/12/28 11:23:11;;;;;;;17.95;7.80;;;;;;;;;;5079151;28;20024;-78
2021/12/28 11:25:37;;;;;;;16.08;7.68;;;;;;;;;;5077856;28;20491;-78
2021/12/28 11:28:20;;;;;;;19.45;8.93;;;;;;;;;;5078000;28;20113;-77
2021/12/28 11:31:05;;;;;;;13.48;6.85;;;;;;;;;;5080265;28;20048;-79
2021/12/28 11:33:46;;;;;;;17.05;8.32;;;;;;;;;;5081841;28;20073;-78
2021/12/28 11:36:13;;;;;;;19.52;9.45;;;;;;;;;;5081400;28;20028;-79
2021/12/28 11:38:39;;;;;;;14.50;7.72;;;;;;;;;;5081209;28;20039;-78
2021/12/28 11:41:06;;;;;;;22.30;7.32;;;;;;;;;;5079930;28;20024;-77
2021/12/28 11:43:36;;;;;;;21.77;9.38;;;;;;;;;;5081848;28;20058;-77
2021/12/28 11:46:02;;;;;;;21.30;9.27;;;;;;;;;;5080517;28;20078;-78
2021/12/28 11:48:27;;;;;;;19.90;10.20;;;;;;;;;;5079187;28;20029;-78
2021/12/28 11:50:54;;;;;;;18.05;9.35;;;;;;;;;;5079354;28;20029;-78
2021/12/28 11:53:21;;;;;;;19.77;9.23;;;;;;;;;;5078894;28;20096;-79
2021/12/28 11:55:46;;;;;;;16.35;7.53;;;;;;;;;;5078929;28;20028;-77
2021/12/28 11:58:11;;;;;;;21.90;10.27;;;;;;;;;;5078519;28;20069;-78
2021/12/28 12:00:41;;;;;;;16.75;8.65;;;;;;;;;;5078316;28;20055;-78
2021/12/28 12:03:07;;;;;;;22.30;9.60;;;;;;;;;;5077059;28;20109;-77
2021/12/28 12:05:34;;;;;;;19.50;8.93;;;;;;;;;;5079669;28;20028;-80
2021/12/28 12:08:11;;;;;;;14.43;7.05;;;;;;;;;;5078964;28;20112;-78
2021/12/28 12:10:46;;;;;;;19.48;8.75;;;;;;;;;;5078206;28;20080;-79
2021/12/28 12:13:23;;;;;;;12.48;5.97;;;;;;;;;;5078746;28;20056;-79
2021/12/28 12:16:18;;;;;;;21.08;8.93;;;;;;;;;;5078654;28;20485;-78
2021/12/28 12:18:46;;;;;;;24.30;10.90;;;;;;;;;;5078137;28;20024;-78
2021/12/28 12:21:17;;;;;;;25.92;10.73;;;;;;;;;;5080513;28;20020;-80
2021/12/28 12:23:49;;;;;;;27.20;11.40;;;;;;;;;;5080300;28;20021;-79
2021/12/28 12:26:23;;;;;;;19.17;10.02;;;;;;;;;;5078778;28;20033;-78
2021/12/28 12:28:52;;;;;;;24.23;9.95;;;;;;;;;;5078963;28;20469;-79
2021/12/28 12:31:37;;;;;;;12.35;6.75;;;;;;;;;;5078875;28;20040;-79
2021/12/28 12:34:22;;;;;;;20.02;9.07;;;;;;;;;;5079227;28;20028;-79
2021/12/28 12:36:51;;;;;;;18.33;9.35;;;;;;;;;;5078170;28;20029;-79
2021/12/28 12:39:16;;;;;;;18.73;8.63;;;;;;;;;;5078835;28;20028;-78
2021/12/28 12:41:50;;;;;;;13.65;6.60;;;;;;;;;;5076906;28;20017;-78
2021/12/28 12:44:19;;;;;;;15.75;7.75;;;;;;;;;;5076338;28;20596;-78
2021/12/28 12:46:47;;;;;;;21.35;9.48;;;;;;;;;;5078015;28;20076;-79
2021/12/28 12:49:19;;;;;;;20.60;9.02;;;;;;;;;;5077008;28;20020;-78
2021/12/28 12:51:52;;;;;;;15.60;7.05;;;;;;;;;;5077162;28;20074;-77
2021/12/28 12:54:27;;;;;;;20.33;10.27;;;;;;;;;;5074639;28;20086;-78
2021/12/28 12:56:54;;;;;;;19.60;9.25;;;;;;;;;;5076515;28;20071;-78
2021/12/28 12:59:42;;;;;;;22.00;9.50;;;;;;;;;;5075060;28;20453;-79
2021/12/28 13:02:10;;;;;;;18.95;9.18;;;;;;;;;;5076263;28;20024;-78
2021/12/28 13:04:36;;;;;;;17.65;8.25;;;;;;;;;;5076320;28;20029;-78
2021/12/28 13:07:20;;;;;;;13.93;7.10;;;;;;;;;;5075763;28;20020;-78
2021/12/28 13:09:58;;;;;;;17.45;8.35;;;;;;;;;;5073632;28;20272;-78
2021/12/28 13:12:25;;;;;;;15.93;8.00;;;;;;;;;;5075067;28;20554;-78
2021/12/28 13:14:51;;;;;;;15.93;7.95;;;;;;;;;;5075237;28;20028;-78
2021/12/28 13:17:21;;;;;;;22.23;7.50;;;;;;;;;;5075373;28;20371;-77
2021/12/28 13:20:07;;;;;;;17.45;8.18;;;;;;;;;;5074964;28;20039;-77
2021/12/28 13:22:39;;;;;;;10.07;5.35;;;;;;;;;;5075142;28;20386;-79
2021/12/28 13:25:09;;;;;;;16.20;8.50;;;;;;;;;;5076002;28;20485;-76
2021/12/28 13:27:36;;;;;;;16.02;8.48;;;;;;;;;;5076273;28;20032;-77
2021/12/28 13:30:04;;;;;;;16.45;7.82;;;;;;;;;;5075033;28;20020;-78
2021/12/28 13:32:34;;;;;;;16.20;8.63;;;;;;;;;;5076444;28;20477;-77
2021/12/28 13:35:06;;;;;;;16.27;8.07;;;;;;;;;;5075407;28;20493;-78
2021/12/28 13:37:38;;;;;;;17.55;8.75;;;;;;;;;;5076752;28;20054;-77
2021/12/28 13:40:10;;;;;;;19.05;9.02;;;;;;;;;;5077237;28;20032;-78
2021/12/28 13:42:36;;;;;;;18.27;9.50;;;;;;;;;;5079189;28;20070;-78
2021/12/28 13:45:01;;;;;;;17.95;8.55;;;;;;;;;;5081755;28;20028;-79
2021/12/28 13:47:27;;;;;;;11.55;5.88;;;;;;;;;;5080443;28;20016;-77
2021/12/28 13:50:19;;;;;;;18.75;9.07;;;;;;;;;;5080274;28;20020;-77
2021/12/28 13:52:52;;;;;;;19.73;9.55;;;;;;;;;;5080715;28;20037;-77
2021/12/28 13:55:28;;;;;;;19.45;9.60;;;;;;;;;;5081865;28;20401;-79
2021/12/28 13:57:53;;;;;;;15.20;7.93;;;;;;;;;;5082088;28;20059;-78
2021/12/28 14:00:22;;;;;;;20.92;9.35;;;;;;;;;;5082414;28;20102;-78
2021/12/28 14:03:02;;;;;;;14.25;8.23;;;;;;;;;;5081976;28;20434;-77
2021/12/28 14:05:29;;;;;;;12.30;6.78;;;;;;;;;;5081029;28;20062;-79
2021/12/28 14:07:55;;;;;;;13.50;7.68;;;;;;;;;;5084712;28;20017;-77
2021/12/28 14:10:21;;;;;;;18.60;8.55;;;;;;;;;;5082705;28;20021;-80
2021/12/28 14:13:08;;;;;;;20.17;8.45;;;;;;;;;;5081511;28;20032;-79
2021/12/28 14:15:45;;;;;;;14.27;7.20;;;;;;;;;;5081102;28;20017;-79
2021/12/28 14:18:28;;;;;;;15.88;8.00;;;;;;;;;;5083297;28;20028;-78
2021/12/28 14:20:54;;;;;;;9.05;4.18;;;;;;;;;;5084087;28;20024;-79
2021/12/28 14:23:32;;;;;;;13.63;7.35;;;;;;;;;;5083864;28;20028;-78
2021/12/28 14:26:13;;;;;;;11.35;5.90;;;;;;;;;;5082709;28;20036;-79
2021/12/28 14:28:41;;;;;;;11.73;5.85;;;;;;;;;;5081935;28;20060;-78
2021/12/28 14:31:29;;;;;;;10.60;5.88;;;;;;;;;;5082519;28;20027;-80